createdAt,value
2023-04-27T00:02:06.780Z,72.01
2023-04-27T00:04:34.982Z,72.63
2023-04-27T00:07:02.930Z,73.08
2023-04-27T00:09:30.793Z,72.21
2023-04-27T00:11:58.548Z,73.55
2023-04-27T00:14:28.682Z,73.87
2023-04-27T00:16:56.883Z,72.93
2023-04-27T00:19:26.102Z,73.03
2023-04-27T00:21:54.279Z,72.55
2023-04-27T00:24:22.239Z,73.55
2023-04-27T00:26:50.050Z,72.97
2023-04-27T00:29:17.953Z,71.22
2023-04-27T00:31:46.175Z,71.90
2023-04-27T00:34:14.055Z,72.18
2023-04-27T00:36:43.264Z,71.80
2023-04-27T00:39:11.284Z,70.73
2023-04-27T00:41:39.576Z,71.55
2023-04-27T00:44:07.452Z,71.41
2023-04-27T00:46:36.252Z,71.21
2023-04-27T00:49:04.221Z,71.81
2023-04-27T00:51:32.242Z,72.15
2023-04-27T00:54:02.819Z,72.03
2023-04-27T00:56:31.881Z,72.34
2023-04-27T00:58:59.805Z,72.32
2023-04-27T01:01:27.899Z,71.98
2023-04-27T01:03:56.079Z,71.55
2023-04-27T01:06:24.120Z,72.10
2023-04-27T01:08:51.913Z,72.70
2023-04-27T01:11:21.637Z,72.16
2023-04-27T01:13:49.490Z,72.67
2023-04-27T01:16:18.682Z,72.70
2023-04-27T01:18:47.400Z,72.56
2023-04-27T01:21:15.547Z,73.74
2023-04-27T01:23:44.876Z,73.30
2023-04-27T01:26:16.218Z,73.52
2023-04-27T01:28:44.238Z,73.83
2023-04-27T01:31:12.506Z,73.52
2023-04-27T01:33:41.297Z,73.83
2023-04-27T01:36:10.380Z,74.54
2023-04-27T01:38:38.312Z,75.07
2023-04-27T01:41:09.333Z,76.15
2023-04-27T01:43:38.122Z,76.20
2023-04-27T01:46:07.765Z,77.02
2023-04-27T01:48:36.396Z,77.54
2023-04-27T01:51:04.805Z,77.59
2023-04-27T01:53:32.683Z,78.15
2023-04-27T01:56:00.824Z,77.02
2023-04-27T01:58:30.202Z,77.37
2023-04-27T02:00:58.325Z,76.55
2023-04-27T02:03:26.339Z,76.31
2023-04-27T02:05:54.361Z,76.96
2023-04-27T02:08:22.340Z,76.82
2023-04-27T02:10:50.175Z,76.15
2023-04-27T02:13:18.658Z,76.60
2023-04-27T02:15:48.097Z,76.96
2023-04-27T02:18:17.413Z,76.20
2023-04-27T02:20:45.579Z,76.61
2023-04-27T02:23:13.361Z,76.52
2023-04-27T02:25:46.746Z,77.61
2023-04-27T02:28:15.058Z,76.90
2023-04-27T02:30:43.661Z,76.00
2023-04-27T02:33:15.153Z,76.44
2023-04-27T02:35:43.078Z,76.34
2023-04-27T02:38:11.273Z,76.68
2023-04-27T02:40:39.576Z,77.63
2023-04-27T02:43:08.283Z,76.96
2023-04-27T02:45:38.345Z,76.33
2023-04-27T02:48:07.678Z,76.79
2023-04-27T02:50:41.571Z,76.84
2023-04-27T02:53:09.516Z,77.92
2023-04-27T02:55:37.412Z,76.50
2023-04-27T02:58:05.494Z,77.28
2023-04-27T03:00:34.204Z,77.79
2023-04-27T03:03:02.279Z,78.33
2023-04-27T03:05:31.821Z,77.79
2023-04-27T03:08:01.404Z,77.81
2023-04-27T03:10:29.571Z,77.61
2023-04-27T03:12:57.446Z,76.99
2023-04-27T03:15:25.272Z,77.29
2023-04-27T03:17:53.599Z,76.89
2023-04-27T03:20:22.843Z,76.91
2023-04-27T03:22:50.687Z,77.32
2023-04-27T03:25:22.373Z,77.73
2023-04-27T03:27:50.872Z,77.88
2023-04-27T03:30:18.779Z,77.38
2023-04-27T03:32:47.888Z,77.66
2023-04-27T03:35:15.977Z,77.40
2023-04-27T03:37:45.910Z,76.84
2023-04-27T03:40:15.484Z,76.88
2023-04-27T03:42:44.683Z,76.54
2023-04-27T03:45:13.075Z,76.59
2023-04-27T03:47:41.265Z,76.79
2023-04-27T03:50:10.047Z,77.10
2023-04-27T03:52:37.880Z,76.10
2023-04-27T03:55:07.672Z,77.15
2023-04-27T03:57:35.726Z,77.40
2023-04-27T04:00:11.400Z,77.24
2023-04-27T04:02:40.786Z,76.34
2023-04-27T04:05:09.959Z,76.59
2023-04-27T04:07:37.897Z,77.08
2023-04-27T04:10:06.971Z,77.25
2023-04-27T04:12:34.991Z,77.30
2023-04-27T04:15:03.560Z,77.95
2023-04-27T04:17:34.140Z,77.22
2023-04-27T04:20:04.436Z,77.55
2023-04-27T04:22:32.281Z,78.06
2023-04-27T04:25:01.365Z,77.93
2023-04-27T04:27:29.274Z,78.19
2023-04-27T04:29:57.267Z,78.74
2023-04-27T04:32:25.282Z,78.73
2023-04-27T04:34:54.741Z,78.78
2023-04-27T04:37:24.050Z,79.15
2023-04-27T04:39:52.640Z,78.98
2023-04-27T04:42:20.742Z,78.46
2023-04-27T04:44:48.811Z,78.87
2023-04-27T04:47:17.664Z,79.09
2023-04-27T04:49:47.184Z,79.72
2023-04-27T04:52:16.721Z,79.21
2023-04-27T04:54:44.628Z,79.30
2023-04-27T04:57:12.492Z,79.86
2023-04-27T04:59:41.229Z,79.47
2023-04-27T05:02:09.093Z,79.59
2023-04-27T05:04:36.959Z,79.40
2023-04-27T05:07:06.632Z,78.18
2023-04-27T05:09:35.890Z,79.32
2023-04-27T05:12:04.042Z,79.23
2023-04-27T05:14:31.931Z,78.73
2023-04-27T05:16:59.758Z,78.79
2023-04-27T05:19:30.112Z,78.19
2023-04-27T05:21:58.771Z,78.28
2023-04-27T05:24:27.209Z,78.36
2023-04-27T05:26:56.489Z,77.97
2023-04-27T05:29:24.520Z,78.37
2023-04-27T05:31:52.397Z,78.31
2023-04-27T05:34:20.756Z,78.56
2023-04-27T05:36:48.639Z,78.48
2023-04-27T05:39:16.600Z,77.46
2023-04-27T05:41:44.553Z,77.48
2023-04-27T05:44:14.055Z,78.73
2023-04-27T05:46:41.847Z,78.24
2023-04-27T05:49:09.707Z,77.38
2023-04-27T05:51:38.407Z,78.01
2023-04-27T05:54:06.512Z,78.00
2023-04-27T05:56:35.110Z,77.50
2023-04-27T05:59:03.497Z,76.47
2023-04-27T06:01:32.806Z,75.50
2023-04-27T06:04:01.717Z,75.61
2023-04-27T06:06:33.207Z,76.54
2023-04-27T06:09:01.202Z,75.41
2023-04-27T06:11:29.196Z,73.12
2023-04-27T06:13:57.085Z,74.07
2023-04-27T06:16:25.100Z,74.79
2023-04-27T06:18:54.462Z,73.49
2023-04-27T06:21:22.294Z,73.76
2023-04-27T06:23:50.333Z,70.48
2023-04-27T06:26:18.149Z,71.80
2023-04-27T06:28:46.790Z,73.29
2023-04-27T06:31:15.189Z,74.08
2023-04-27T06:33:43.104Z,74.99
2023-04-27T06:36:12.476Z,75.08
2023-04-27T06:38:40.488Z,75.25
2023-04-27T06:41:08.357Z,75.95
2023-04-27T06:43:36.250Z,75.33
2023-04-27T06:46:04.589Z,75.28
2023-04-27T06:48:32.531Z,74.34
2023-04-27T06:51:00.731Z,73.62
2023-04-27T06:53:30.003Z,71.82
2023-04-27T06:55:57.968Z,71.50
2023-04-27T06:58:27.045Z,71.04
2023-04-27T07:00:55.098Z,70.15
2023-04-27T07:03:23.078Z,68.13
2023-04-27T07:05:53.105Z,68.18
2023-04-27T07:08:21.012Z,67.45
2023-04-27T07:10:50.297Z,67.22
2023-04-27T07:13:18.162Z,66.81
2023-04-27T07:15:46.059Z,66.03
2023-04-27T07:18:13.954Z,65.42
2023-04-27T07:20:42.599Z,63.46
2023-04-27T07:23:10.739Z,63.83
2023-04-27T07:25:40.328Z,60.49
2023-04-27T07:28:09.970Z,60.39
2023-04-27T07:30:38.682Z,57.94
2023-04-27T07:33:07.259Z,59.42
2023-04-27T07:35:35.514Z,58.76
2023-04-27T07:38:03.878Z,58.44
2023-04-27T07:40:32.860Z,58.72
2023-04-27T07:43:01.135Z,58.29
2023-04-27T07:45:32.968Z,58.74
2023-04-27T07:48:02.069Z,58.74
2023-04-27T07:50:31.000Z,57.93
2023-04-27T07:52:59.994Z,58.28
2023-04-27T07:55:28.503Z,57.87
2023-04-27T07:57:57.404Z,57.62
2023-04-27T08:00:26.389Z,59.30
2023-04-27T08:02:56.708Z,58.58
2023-04-27T08:05:25.297Z,57.71
2023-04-27T08:07:54.609Z,57.14
2023-04-27T08:10:23.466Z,56.54
2023-04-27T08:12:51.621Z,55.72
2023-04-27T08:15:19.649Z,54.73
2023-04-27T08:17:49.156Z,53.42
2023-04-27T08:20:18.399Z,53.04
2023-04-27T08:22:46.208Z,54.56
2023-04-27T08:25:14.073Z,52.88
2023-04-27T08:27:42.150Z,53.75
2023-04-27T08:30:10.916Z,52.92
2023-04-27T08:32:39.100Z,53.51
2023-04-27T08:35:07.797Z,52.02
2023-04-27T08:37:37.056Z,52.10
2023-04-27T08:40:07.844Z,50.14
2023-04-27T08:42:35.877Z,49.63
2023-04-27T08:45:04.653Z,50.86
2023-04-27T08:47:42.863Z,48.65
2023-04-27T08:50:12.569Z,48.06
2023-04-27T08:52:44.679Z,49.57
2023-04-27T08:55:14.978Z,49.54
2023-04-27T08:57:56.184Z,48.95
2023-04-27T09:00:25.843Z,48.82
2023-04-27T09:02:53.950Z,49.23
2023-04-27T09:05:23.637Z,48.79
2023-04-27T09:08:00.809Z,49.63
2023-04-27T09:10:30.032Z,50.34
2023-04-27T09:13:01.957Z,48.86
2023-04-27T09:15:30.094Z,48.44
2023-04-27T09:17:58.840Z,49.14
2023-04-27T09:20:28.739Z,49.89
2023-04-27T09:22:58.289Z,47.26
2023-04-27T09:25:29.982Z,47.52
2023-04-27T09:27:58.743Z,48.75
2023-04-27T09:30:27.362Z,47.60
2023-04-27T09:32:57.173Z,47.07
2023-04-27T09:35:27.073Z,48.16
2023-04-27T09:37:55.593Z,46.23
2023-04-27T09:40:26.673Z,46.81
2023-04-27T09:42:57.841Z,46.21
2023-04-27T09:45:26.269Z,47.82
2023-04-27T09:47:54.330Z,46.96
2023-04-27T09:50:22.843Z,48.19
2023-04-27T09:52:51.245Z,46.61
2023-04-27T09:55:25.634Z,47.47
2023-04-27T09:58:10.675Z,47.25
2023-04-27T10:00:54.106Z,47.23
2023-04-27T10:03:30.885Z,49.02
2023-04-27T10:06:46.723Z,48.14
2023-04-27T10:09:15.057Z,46.73
2023-04-27T10:11:45.041Z,46.05
2023-04-27T10:14:18.429Z,45.96
2023-04-27T10:16:47.630Z,45.93
2023-04-27T10:19:15.952Z,47.80
2023-04-27T10:21:59.020Z,49.59
2023-04-27T10:24:36.629Z,49.04
2023-04-27T10:27:09.057Z,44.92
2023-04-27T10:29:40.237Z,45.46
2023-04-27T10:32:10.412Z,45.60
2023-04-27T10:34:38.933Z,45.83
2023-04-27T10:37:08.291Z,45.24
2023-04-27T10:39:48.049Z,45.19
2023-04-27T10:42:28.622Z,45.94
2023-04-27T10:44:59.649Z,46.10
2023-04-27T10:47:38.314Z,46.27
2023-04-27T10:50:07.521Z,46.72
2023-04-27T10:52:35.677Z,45.74
2023-04-27T10:55:14.892Z,44.98
2023-04-27T10:57:51.061Z,46.67
2023-04-27T11:00:26.915Z,45.14
2023-04-27T11:02:55.729Z,44.99
2023-04-27T11:12:25.421Z,46.03
2023-04-27T11:14:58.591Z,46.37
2023-04-27T11:17:31.532Z,45.52
2023-04-27T11:19:59.579Z,45.19
2023-04-27T11:22:27.579Z,45.80
2023-04-27T11:24:55.413Z,46.69
2023-04-27T11:27:25.174Z,46.58
2023-04-27T11:29:52.941Z,45.46
2023-04-27T11:32:21.562Z,45.49
2023-04-27T11:34:56.127Z,45.56
2023-04-27T11:37:26.525Z,45.19
2023-04-27T11:39:57.365Z,45.79
2023-04-27T11:42:28.457Z,47.04
2023-04-27T11:44:57.930Z,46.99
2023-04-27T11:47:27.797Z,45.60
2023-04-27T11:49:58.574Z,45.02
2023-04-27T11:52:29.920Z,45.74
2023-04-27T11:54:58.185Z,45.08
2023-04-27T11:57:27.450Z,44.87
2023-04-27T11:59:56.202Z,44.88
2023-04-27T12:02:24.483Z,44.58
2023-04-27T12:04:52.729Z,44.10
2023-04-27T12:07:22.352Z,44.03
2023-04-27T12:09:50.201Z,43.31
2023-04-27T12:12:18.372Z,44.25
2023-04-27T12:14:46.868Z,44.56
2023-04-27T12:17:14.701Z,44.23
2023-04-27T12:19:42.415Z,43.51
2023-04-27T12:22:10.647Z,44.93
2023-04-27T12:24:39.760Z,44.23
2023-04-27T12:27:08.305Z,44.47
2023-04-27T12:29:36.832Z,43.94
2023-04-27T12:32:04.732Z,44.72
2023-04-27T12:34:32.878Z,44.08
2023-04-27T12:37:00.970Z,44.16
2023-04-27T12:39:28.724Z,44.95
2023-04-27T12:41:58.240Z,44.12
2023-04-27T12:44:26.980Z,44.03
2023-04-27T12:46:54.810Z,44.03
2023-04-27T12:49:22.900Z,44.76
2023-04-27T12:51:51.792Z,43.67
2023-04-27T12:54:19.787Z,43.07
2023-04-27T12:56:47.623Z,43.42
2023-04-27T12:59:17.078Z,43.37
2023-04-27T13:01:45.661Z,43.25
2023-04-27T13:04:20.135Z,43.14
2023-04-27T13:06:49.719Z,44.72
2023-04-27T13:09:17.651Z,43.84
2023-04-27T13:11:45.393Z,43.40
2023-04-27T13:14:13.859Z,43.12
2023-04-27T13:16:43.580Z,43.44
2023-04-27T13:19:11.356Z,44.04
2023-04-27T13:21:39.203Z,42.95
2023-04-27T13:24:08.048Z,42.58
2023-04-27T13:26:36.006Z,42.56
2023-04-27T13:29:04.717Z,42.61
2023-04-27T13:31:33.314Z,43.66
2023-04-27T13:34:04.652Z,44.26
2023-04-27T13:36:32.429Z,44.25
2023-04-27T13:39:00.345Z,44.23
2023-04-27T13:41:28.370Z,44.02
2023-04-27T13:43:56.158Z,44.01
2023-04-27T13:46:24.265Z,43.42
2023-04-27T13:48:52.080Z,44.52
2023-04-27T13:51:21.456Z,44.03
2023-04-27T13:53:49.175Z,44.24
2023-04-27T13:56:16.886Z,44.93
2023-04-27T13:58:44.672Z,44.45
2023-04-27T14:01:12.482Z,44.45
2023-04-27T14:03:43.208Z,44.58
2023-04-27T14:06:11.259Z,43.96
2023-04-27T14:08:41.463Z,43.91
2023-04-27T14:11:09.215Z,44.22
2023-04-27T14:13:36.902Z,45.77
2023-04-27T14:16:04.902Z,46.72
2023-04-27T14:18:33.355Z,44.50
2023-04-27T14:21:01.191Z,44.73
2023-04-27T14:23:28.964Z,44.40
2023-04-27T14:25:58.131Z,44.05
2023-04-27T14:28:26.081Z,44.26
2023-04-27T14:30:53.887Z,44.50
2023-04-27T14:33:21.625Z,43.73
2023-04-27T14:35:49.327Z,42.83
2023-04-27T14:38:17.083Z,43.42
2023-04-27T14:40:44.961Z,44.17
2023-04-27T14:43:14.242Z,43.19
2023-04-27T14:45:52.447Z,42.90
2023-04-27T14:48:21.968Z,42.94
2023-04-27T14:50:50.077Z,43.24
2023-04-27T14:53:17.868Z,43.54
2023-04-27T14:55:46.650Z,44.22
2023-04-27T14:58:15.815Z,43.64
2023-04-27T15:00:43.707Z,43.76
2023-04-27T15:03:11.804Z,44.21
2023-04-27T15:05:39.860Z,43.54
2023-04-27T15:08:07.539Z,43.93
2023-04-27T15:10:35.269Z,42.84
2023-04-27T15:13:03.350Z,43.46
2023-04-27T15:15:32.527Z,43.74
2023-04-27T15:18:00.546Z,43.41
2023-04-27T15:20:28.554Z,43.32
2023-04-27T15:22:56.725Z,43.62
2023-04-27T15:25:24.457Z,43.72
2023-04-27T15:27:52.250Z,43.30
2023-04-27T15:30:19.983Z,43.15
2023-04-27T15:32:49.549Z,43.48
2023-04-27T15:35:17.616Z,45.10
2023-04-27T15:37:45.492Z,44.15
2023-04-27T15:40:13.636Z,44.25
2023-04-27T15:42:41.579Z,43.96
2023-04-27T15:45:10.880Z,45.00
2023-04-27T15:47:38.703Z,43.82
2023-04-27T15:50:09.329Z,45.19
2023-04-27T15:52:37.058Z,44.07
2023-04-27T15:55:05.449Z,45.44
2023-04-27T15:57:33.294Z,44.44
2023-04-27T16:00:01.240Z,45.18
2023-04-27T16:02:29.146Z,45.21
2023-04-27T16:04:57.181Z,44.49
2023-04-27T16:07:26.470Z,44.01
2023-04-27T16:09:54.321Z,44.30
2023-04-27T16:12:22.112Z,44.54
2023-04-27T16:14:51.844Z,43.60
2023-04-27T16:17:19.707Z,44.70
2023-04-27T16:19:47.447Z,44.08
2023-04-27T16:22:15.300Z,44.16
2023-04-27T16:24:44.544Z,44.49
2023-04-27T16:27:12.507Z,44.71
2023-04-27T16:29:40.696Z,44.79
2023-04-27T16:32:08.661Z,44.77
2023-04-27T16:34:37.220Z,45.43
2023-04-27T16:37:05.136Z,45.56
2023-04-27T16:39:33.154Z,45.54
2023-04-27T16:42:02.740Z,46.15
2023-04-27T16:44:30.909Z,46.63
2023-04-27T16:46:58.801Z,46.59
2023-04-27T16:49:27.009Z,46.38
2023-04-27T16:51:56.245Z,46.42
2023-04-27T16:54:24.098Z,46.35
2023-04-27T16:56:53.232Z,46.79
2023-04-27T16:59:24.153Z,46.55
2023-04-27T17:01:52.438Z,46.53
2023-04-27T17:04:20.799Z,46.07
2023-04-27T17:06:49.088Z,46.77
2023-04-27T17:09:17.580Z,46.81
2023-04-27T17:11:46.004Z,46.83
2023-04-27T17:14:14.215Z,47.43
2023-04-27T17:16:43.722Z,46.99
2023-04-27T17:19:13.414Z,47.46
2023-04-27T17:21:41.852Z,47.80
2023-04-27T17:24:10.710Z,47.52
2023-04-27T17:26:39.119Z,47.77
2023-04-27T17:29:07.392Z,47.45
2023-04-27T17:31:36.871Z,47.86
2023-04-27T17:34:06.571Z,47.85
2023-04-27T17:36:34.781Z,47.99
2023-04-27T17:39:03.363Z,48.11
2023-04-27T17:41:32.589Z,47.67
2023-04-27T17:44:00.984Z,48.13
2023-04-27T17:46:28.832Z,48.12
2023-04-27T17:48:56.632Z,48.40
2023-04-27T17:51:25.857Z,48.82
2023-04-27T17:53:53.608Z,49.37
2023-04-27T17:56:21.333Z,49.48
2023-04-27T17:58:49.108Z,48.89
2023-04-27T18:01:17.103Z,48.46
2023-04-27T18:03:44.940Z,49.15
2023-04-27T18:06:12.772Z,48.75
2023-04-27T18:08:41.956Z,49.78
2023-04-27T18:11:09.716Z,50.17
2023-04-27T18:13:38.191Z,50.47
2023-04-27T18:16:06.699Z,50.85
2023-04-27T18:18:34.461Z,49.99
2023-04-27T18:21:02.203Z,50.55
2023-04-27T18:23:29.986Z,50.02
2023-04-27T18:26:00.853Z,50.72
2023-04-27T18:28:28.595Z,51.49
2023-04-27T18:30:56.527Z,51.33
2023-04-27T18:33:24.310Z,51.79
2023-04-27T18:35:52.219Z,51.07
2023-04-27T18:38:20.126Z,51.13
2023-04-27T18:40:48.393Z,52.42
2023-04-27T18:43:17.442Z,52.02
2023-04-27T18:45:45.290Z,52.28
2023-04-27T18:48:13.099Z,52.51
2023-04-27T18:50:40.856Z,52.74
2023-04-27T18:53:08.640Z,53.38
2023-04-27T18:55:36.394Z,53.35
2023-04-27T18:58:04.210Z,53.59
2023-04-27T19:00:33.797Z,54.44
2023-04-27T19:03:01.693Z,56.80
2023-04-27T19:05:30.214Z,55.90
2023-04-27T19:07:58.050Z,55.10
2023-04-27T19:10:25.802Z,53.85
2023-04-27T19:12:54.051Z,55.45
2023-04-27T19:15:21.990Z,54.58
2023-04-27T19:18:02.171Z,55.16
2023-04-27T19:20:37.514Z,55.61
2023-04-27T19:23:05.607Z,56.83
2023-04-27T19:25:33.473Z,55.96
2023-04-27T19:28:01.283Z,55.97
2023-04-27T19:30:29.070Z,56.72
2023-04-27T19:32:58.244Z,57.78
2023-04-27T19:35:27.330Z,57.93
2023-04-27T19:37:55.086Z,58.38
2023-04-27T19:40:22.907Z,58.10
2023-04-27T19:42:50.694Z,57.96
2023-04-27T19:45:18.923Z,57.76
2023-04-27T19:47:48.618Z,58.60
2023-04-27T19:50:18.025Z,58.37
2023-04-27T19:52:45.713Z,58.31
2023-04-27T19:55:13.668Z,59.02
2023-04-27T19:57:41.466Z,59.34
2023-04-27T20:00:11.524Z,59.98
2023-04-27T20:02:42.259Z,60.23
2023-04-27T20:05:10.691Z,59.90
2023-04-27T20:07:40.071Z,60.38
2023-04-27T20:10:08.637Z,60.43
2023-04-27T20:12:54.644Z,61.01
2023-04-27T20:15:24.506Z,62.34
2023-04-27T20:17:52.389Z,62.75
2023-04-27T20:20:20.698Z,63.78
2023-04-27T20:22:49.872Z,64.11
2023-04-27T20:25:19.529Z,64.13
2023-04-27T20:27:47.376Z,64.89
2023-04-27T20:30:15.253Z,64.98
2023-04-27T20:32:42.998Z,65.18
2023-04-27T20:35:11.231Z,65.42
2023-04-27T20:37:40.070Z,65.43
2023-04-27T20:40:14.278Z,65.25
2023-04-27T20:42:42.621Z,66.16
2023-04-27T20:45:11.578Z,66.22
2023-04-27T20:47:39.350Z,66.88
2023-04-27T20:50:09.054Z,66.75
2023-04-27T20:52:37.000Z,67.21
2023-04-27T20:55:05.177Z,67.80
2023-04-27T20:57:34.342Z,68.34
2023-04-27T21:00:02.145Z,68.09
2023-04-27T21:02:29.970Z,67.83
2023-04-27T21:04:57.981Z,67.70
2023-04-27T21:07:26.367Z,68.18
2023-04-27T21:09:54.323Z,67.33
2023-04-27T21:12:23.353Z,67.98
2023-04-27T21:14:52.448Z,69.01
2023-04-27T21:17:20.161Z,69.57
2023-04-27T21:19:47.948Z,68.88
2023-04-27T21:22:15.701Z,68.86
2023-04-27T21:24:43.465Z,68.15
2023-04-27T21:27:11.539Z,68.08
2023-04-27T21:29:39.286Z,67.20
2023-04-27T21:32:08.456Z,68.21
2023-04-27T21:34:36.235Z,67.34
2023-04-27T21:37:04.038Z,67.78
2023-04-27T21:39:31.777Z,68.30
2023-04-27T21:41:59.481Z,69.36
2023-04-27T21:44:27.270Z,68.87
2023-04-27T21:46:55.013Z,68.79
2023-04-27T21:49:24.187Z,69.30
2023-04-27T21:51:51.848Z,69.13
2023-04-27T21:54:19.970Z,68.92
2023-04-27T21:56:47.697Z,68.90
2023-04-27T21:59:15.438Z,69.16
2023-04-27T22:01:43.920Z,69.39
2023-04-27T22:04:11.993Z,70.57
2023-04-27T22:06:41.251Z,70.49
2023-04-27T22:09:09.127Z,71.53
2023-04-27T22:11:36.823Z,71.24
2023-04-27T22:14:04.649Z,70.75
2023-04-27T22:16:32.519Z,72.02
2023-04-27T22:19:01.057Z,72.14
2023-04-27T22:21:29.393Z,72.00
2023-04-27T22:23:58.542Z,71.31
2023-04-27T22:26:26.403Z,71.94
2023-04-27T22:28:54.175Z,72.73
2023-04-27T22:31:22.175Z,73.26
2023-04-27T22:33:49.961Z,73.12
2023-04-27T22:36:17.815Z,73.31
2023-04-27T22:38:45.562Z,73.40
2023-04-27T22:41:14.638Z,73.83
2023-04-27T22:43:42.412Z,74.56
2023-04-27T22:46:10.211Z,74.09
2023-04-27T22:48:38.086Z,74.08
2023-04-27T22:51:09.173Z,74.41
2023-04-27T22:53:37.345Z,74.00
2023-04-27T22:56:06.107Z,74.15
2023-04-27T22:58:36.090Z,75.33
2023-04-27T23:01:03.982Z,74.62
2023-04-27T23:03:32.121Z,74.57
2023-04-27T23:06:00.852Z,74.17
2023-04-27T23:08:28.895Z,73.93
2023-04-27T23:10:56.852Z,72.86
2023-04-27T23:13:26.729Z,71.92
2023-04-27T23:15:55.996Z,71.02
2023-04-27T23:18:23.766Z,70.16
2023-04-27T23:20:54.605Z,71.39
2023-04-27T23:23:22.707Z,71.07
2023-04-27T23:25:50.600Z,71.61
2023-04-27T23:28:18.501Z,71.61
2023-04-27T23:30:53.838Z,71.97
2023-04-27T23:33:24.248Z,72.26
2023-04-27T23:35:53.076Z,72.23
2023-04-27T23:38:21.744Z,71.45
2023-04-27T23:40:50.518Z,71.07
2023-04-27T23:43:18.509Z,71.99
2023-04-27T23:45:50.628Z,72.88
2023-04-27T23:48:18.558Z,72.80
2023-04-27T23:50:47.738Z,73.19
2023-04-27T23:53:15.675Z,72.84
2023-04-27T23:55:43.682Z,73.34
2023-04-27T23:58:11.401Z,73.62
